Huvudsida
METAR-TAF:

METAR-TAF

Flygplatser :

Maragheh, Iran

latitud: 37-20-55N, longitud: 046-07-35E, höjd: 1340 m

Aktuellt väderrapport

Denna rapport gjordes för 12 minuter sedan, klockan 04:00 UTC
Vind 6 kt från ost/nordost
Temperatur 0°C
Fuktighet 74%
Tryck 1021 hPa
Sikt 10 km eller mer
Inga moln under 1 500 m eller inga cumulonimbus

METAR: OITM 200400Z 07006KT CAVOK 00/M04 Q1021

Tid: 07:42 (04:12 UTC)


TAF: saknas

Aktuella väderrapporter och prognoser från 4000 flygplatser (METAR- och TAF-rapporter).

De tillgängliga stationerna syns som gula och röda prickar på kartan.

För musen över prickarna för att se namnen på stationerna.

Klicka sedan för att få väderrapporter och prognoser.

För att ändra kartan: Klicka på de gröna knapparna med ett svart kors på för att zooma in; den gröna knappen med ett streck på för att zooma ut; eller på de gröna pilarna för angränsande kartor.


METAR-TAF: